MUC | München Airways

 METAR UND TAF INFORMATION

METAR FOR LSZH
ADDS - METARS form results

(0853 UTC 22 March 2019)
Data provider http://aviationweather.gov/metar/data/
 
METAR text: LSZH 220850Z VRB02KT CAVOK 07/01 Q1031 NOSIG
Conditions at: LSZH (ZURICH-KLOTEN (A, CH) observed 0850 UTC 22 March 2019
Temperature: 7.0°C (45°F)
Dewpoint: 1.0°C (34°F) [RH = 66%]
Pressure (altimeter): 30.44 inches Hg (1031.0 mb)
Winds: variable direction winds at 2 MPH (2 knots; 1.0 m/s)
Visibility: 6 or more miles (10+ km)
Ceiling: ceiling and visibility are OK
Clouds: unknown
Weather: no significant weather observed at this time

METAR text: LSZH 220820Z VRB01KT CAVOK 06/00 Q1031 NOSIG
Conditions at: LSZH (ZURICH-KLOTEN (A, CH) observed 0820 UTC 22 March 2019
Temperature: 6.0°C (43°F)
Dewpoint: 0.0°C (32°F) [RH = 65%]
Pressure (altimeter): 30.44 inches Hg (1031.0 mb)
Winds: variable direction winds at 1 MPH (1 knots; 0.5 m/s)
Visibility: 6 or more miles (10+ km)
Ceiling: ceiling and visibility are OK
Clouds: unknown
Weather: no significant weather observed at this time

Forecast for: LSZH (ZURICH-KLOTEN (A, CH)
Text: TAF LSZH 220825Z 2209/2315 VRB02KT CAVOK TX18/2215Z TNM01/2305Z TX19/2315Z
Forecast period: 0900 UTC 22 March 2019 to 1500 UTC 23 March 2019
Forecast type: FROM: standard forecast or significant change
Winds: variable direction winds at 2 MPH (2 knots; 1.0 m/s)
Visibility: 6 or more miles 10+ km)
Ceiling: unknown
Clouds: missing
Weather: no significant weather forecast for this period

 FLUGHAFENKARTE

 RUNWAY INFORMATION
Runway 10 Runway length 8202 ft Runway width 197 ft
Runway elevation 1391 ft Runway displaced threshold 0 ft Runway heading 96
Runway 28 Runway length 8202 ft Runway width 197 ft
Runway elevation 1416 ft Runway displaced threshold 0 ft Runway heading 276
Runway 14 Runway length 10827 ft Runway width 197 ft
Runway elevation 1402 ft Runway displaced threshold 490 ft Runway heading 137
Runway 32 Runway length 10827 ft Runway width 197 ft
Runway elevation 1402 ft Runway displaced threshold 0 ft Runway heading 317
Runway 16 Runway length 12139 ft Runway width 197 ft
Runway elevation 1390 ft Runway displaced threshold 0 ft Runway heading 155
Runway 34 Runway length 12139 ft Runway width 197 ft
Runway elevation 1388 ft Runway displaced threshold 1541 ft Runway heading 335

 AIRPORT FREQUENCIES
Type APP Name APP Frequency 118 MHZ
Type ATIS Name ATIS Frequency 125.725 MHZ
Type CLD Name CLNC DEL Frequency 121.8 MHZ
Type DEP Name DEP Frequency 125.95 MHZ
Type GND Name GND Frequency 121.9 MHZ
Type RMP Name APRON Frequency 121.75 MHZ
Type TCA Name TERMINAL Frequency 127.75 MHZ
Type TWR Name TWR Frequency 118.1 MHZ

 AIRPORT NEAR NAVIGATION AIDS
Type VOR-DME Name Kloten Frequency 114850 KHZ
Type VOR-DME Name Zurich East Frequency 110050 KHZ